CheckWX is a tool to help pilots better visualize weather data.  It is not intended as a substitute for an official pre-flight weather briefing.

04:39:53 UTC

KMSP TAF
Minneapolis-St Paul International / Wold-Chamberlain Airport
Minneapolis, Minnesota, USA
KMSP 230255Z 2303/2406 07006KT P6SM SKC FM231400 11006KT P6SM SCT030 FM231600 13008KT P6SM BKN040 FM232000 13009KT P6SM SCT050 BKN200 FM240200 11006KT P6SM SCT250

Aug-23@
03:00 UTC

Aug-23 @ 03:00 UTC

Aug-23@
14:00 UTC

Aug-23 @ 14:00 UTC

KMSP 230255Z 2303/2406 07006KT P6SM SKC
Wind
  • 070° at 6 KTS
Cloud Levels
  • Clear skies

Aug-23@
14:00 UTC

Aug-23 @ 14:00 UTC

Aug-23@
16:00 UTC

Aug-23 @ 16:00 UTC

FM231400 11006KT P6SM SCT030

From

From Standard forecast or significant change

Wind
  • 110° at 6 KTS
Cloud Levels
  • Scattered at 3,000' AGL

Aug-23@
16:00 UTC

Aug-23 @ 16:00 UTC

Aug-23@
20:00 UTC

Aug-23 @ 20:00 UTC

FM231600 13008KT P6SM BKN040

From

From Standard forecast or significant change

Wind
  • 130° at 8 KTS
Cloud Levels
  • Broken at 4,000' AGL

Aug-23@
20:00 UTC

Aug-23 @ 20:00 UTC

Aug-24@
02:00 UTC

Aug-24 @ 02:00 UTC

FM232000 13009KT P6SM SCT050 BKN200

From

From Standard forecast or significant change

Wind
  • 130° at 9 KTS
Cloud Levels
  • Scattered at 5,000' AGL
  • Broken at 20,000' AGL

Aug-24@
02:00 UTC

Aug-24 @ 02:00 UTC

Aug-24@
06:00 UTC

Aug-24 @ 06:00 UTC

FM240200 11006KT P6SM SCT250

From

From Standard forecast or significant change

Wind
  • 110° at 6 KTS
Cloud Levels
  • Scattered at 25,000' AGL